sensor_id;sensor_type;location;lat;lon;timestamp;pressure;altitude;pressure_sealevel;temperature;humidity
52927;BME280;40783;49.710;8.842;2023-03-15T00:02:20;98691.25;;;3.23;100.00
52927;BME280;40783;49.710;8.842;2023-03-15T00:04:46;98685.00;;;3.24;100.00
52927;BME280;40783;49.710;8.842;2023-03-15T00:07:11;98685.63;;;3.16;100.00
52927;BME280;40783;49.710;8.842;2023-03-15T00:09:38;98689.47;;;3.01;100.00
52927;BME280;40783;49.710;8.842;2023-03-15T00:12:06;98698.72;;;2.95;100.00
52927;BME280;40783;49.710;8.842;2023-03-15T00:14:32;98703.03;;;2.85;100.00
52927;BME280;40783;49.710;8.842;2023-03-15T00:16:57;98700.66;;;2.93;100.00
52927;BME280;40783;49.710;8.842;2023-03-15T00:19:24;98705.69;;;2.96;100.00
52927;BME280;40783;49.710;8.842;2023-03-15T00:21:50;98708.09;;;3.10;100.00
52927;BME280;40783;49.710;8.842;2023-03-15T00:24:15;98706.66;;;3.18;100.00
52927;BME280;40783;49.710;8.842;2023-03-15T00:26:43;98717.47;;;3.03;100.00
52927;BME280;40783;49.710;8.842;2023-03-15T00:29:10;98721.88;;;3.14;100.00
52927;BME280;40783;49.710;8.842;2023-03-15T00:31:35;98730.91;;;3.11;100.00
52927;BME280;40783;49.710;8.842;2023-03-15T00:34:01;98736.91;;;3.02;100.00
52927;BME280;40783;49.710;8.842;2023-03-15T00:36:28;98739.56;;;3.02;100.00
52927;BME280;40783;49.710;8.842;2023-03-15T00:38:54;98737.63;;;2.93;100.00
52927;BME280;40783;49.710;8.842;2023-03-15T00:41:20;98737.84;;;2.78;100.00
52927;BME280;40783;49.710;8.842;2023-03-15T00:43:46;98735.09;;;2.80;100.00
52927;BME280;40783;49.710;8.842;2023-03-15T00:46:12;98743.09;;;2.44;100.00
52927;BME280;40783;49.710;8.842;2023-03-15T00:48:37;98746.72;;;2.55;100.00
52927;BME280;40783;49.710;8.842;2023-03-15T00:51:03;98745.06;;;2.65;100.00
52927;BME280;40783;49.710;8.842;2023-03-15T00:53:29;98757.03;;;2.69;100.00
52927;BME280;40783;49.710;8.842;2023-03-15T00:55:56;98752.94;;;2.54;100.00
52927;BME280;40783;49.710;8.842;2023-03-15T00:58:22;98759.69;;;2.58;100.00
52927;BME280;40783;49.710;8.842;2023-03-15T01:00:47;98771.69;;;2.62;100.00
52927;BME280;40783;49.710;8.842;2023-03-15T01:03:12;98765.44;;;2.74;100.00
52927;BME280;40783;49.710;8.842;2023-03-15T01:05:40;98774.78;;;2.67;100.00
52927;BME280;40783;49.710;8.842;2023-03-15T01:08:08;98778.16;;;2.69;100.00
52927;BME280;40783;49.710;8.842;2023-03-15T01:10:36;98779.84;;;2.70;100.00
52927;BME280;40783;49.710;8.842;2023-03-15T01:13:01;98777.19;;;2.59;100.00
52927;BME280;40783;49.710;8.842;2023-03-15T01:15:26;98783.94;;;2.63;100.00
52927;BME280;40783;49.710;8.842;2023-03-15T01:17:51;98787.75;;;2.59;100.00
52927;BME280;40783;49.710;8.842;2023-03-15T01:20:17;98785.59;;;2.52;100.00
52927;BME280;40783;49.710;8.842;2023-03-15T01:22:42;98792.31;;;2.68;100.00
52927;BME280;40783;49.710;8.842;2023-03-15T01:25:09;98784.16;;;2.60;100.00
52927;BME280;40783;49.710;8.842;2023-03-15T01:27:35;98793.97;;;2.46;100.00
52927;BME280;40783;49.710;8.842;2023-03-15T01:30:00;98793.00;;;2.47;100.00
52927;BME280;40783;49.710;8.842;2023-03-15T01:32:26;98795.41;;;2.50;100.00
52927;BME280;40783;49.710;8.842;2023-03-15T01:34:51;98796.09;;;2.41;100.00
52927;BME280;40783;49.710;8.842;2023-03-15T01:37:16;98796.09;;;2.41;100.00
52927;BME280;40783;49.710;8.842;2023-03-15T01:39:41;98807.88;;;2.48;100.00
52927;BME280;40783;49.710;8.842;2023-03-15T01:42:07;98806.66;;;2.41;100.00
52927;BME280;40783;49.710;8.842;2023-03-15T01:47:18;98817.66;;;2.35;100.00
52927;BME280;40783;49.710;8.842;2023-03-15T01:49:51;98821.25;;;2.34;100.00
52927;BME280;40783;49.710;8.842;2023-03-15T01:52:22;98826.09;;;2.40;100.00
52927;BME280;40783;49.710;8.842;2023-03-15T01:54:53;98826.53;;;2.34;100.00
52927;BME280;40783;49.710;8.842;2023-03-15T01:57:28;98829.47;;;2.42;100.00
52927;BME280;40783;49.710;8.842;2023-03-15T01:59:56;98827.78;;;2.41;100.00
52927;BME280;40783;49.710;8.842;2023-03-15T02:02:26;98833.56;;;2.22;100.00
52927;BME280;40783;49.710;8.842;2023-03-15T02:04:54;98834.81;;;2.29;100.00
52927;BME280;40783;49.710;8.842;2023-03-15T02:07:21;98841.31;;;2.12;100.00
52927;BME280;40783;49.710;8.842;2023-03-15T02:12:14;98841.44;;;2.11;100.00
52927;BME280;40783;49.710;8.842;2023-03-15T02:14:41;98840.97;;;2.17;100.00
52927;BME280;40783;49.710;8.842;2023-03-15T02:17:06;98831.44;;;2.27;100.00
52927;BME280;40783;49.710;8.842;2023-03-15T02:19:36;98825.97;;;2.17;100.00
52927;BME280;40783;49.710;8.842;2023-03-15T02:27:46;98840.94;;;1.68;100.00
52927;BME280;40783;49.710;8.842;2023-03-15T02:30:12;98841.03;;;1.67;100.00
52927;BME280;40783;49.710;8.842;2023-03-15T02:32:37;98836.06;;;1.75;100.00
52927;BME280;40783;49.710;8.842;2023-03-15T02:35:02;98833.06;;;1.92;100.00
52927;BME280;40783;49.710;8.842;2023-03-15T02:37:30;98830.31;;;1.94;100.00
52927;BME280;40783;49.710;8.842;2023-03-15T02:39:58;98842.88;;;1.90;100.00
52927;BME280;40783;49.710;8.842;2023-03-15T02:42:25;98843.19;;;1.86;100.00
52927;BME280;40783;49.710;8.842;2023-03-15T02:44:53;98842.81;;;1.79;100.00
52927;BME280;40783;49.710;8.842;2023-03-15T02:47:21;98855.47;;;1.74;100.00
52927;BME280;40783;49.710;8.842;2023-03-15T02:49:51;98856.94;;;1.78;100.00
52927;BME280;40783;49.710;8.842;2023-03-15T02:52:17;98845.72;;;1.87;100.00
52927;BME280;40783;49.710;8.842;2023-03-15T02:54:43;98861.13;;;1.93;100.00
52927;BME280;40783;49.710;8.842;2023-03-15T02:57:11;98858.25;;;1.97;100.00
52927;BME280;40783;49.710;8.842;2023-03-15T02:59:37;98872.41;;;1.96;100.00
52927;BME280;40783;49.710;8.842;2023-03-15T03:02:02;98885.38;;;1.99;100.00
52927;BME280;40783;49.710;8.842;2023-03-15T03:04:28;98880.00;;;1.87;100.00
52927;BME280;40783;49.710;8.842;2023-03-15T03:06:53;98876.94;;;1.93;100.00
52927;BME280;40783;49.710;8.842;2023-03-15T03:09:18;98881.25;;;1.95;100.00
52927;BME280;40783;49.710;8.842;2023-03-15T03:11:43;98881.41;;;1.80;100.00
52927;BME280;40783;49.710;8.842;2023-03-15T03:14:11;98880.56;;;1.67;100.00
52927;BME280;40783;49.710;8.842;2023-03-15T03:16:41;98883.50;;;1.75;100.00
52927;BME280;40783;49.710;8.842;2023-03-15T03:19:07;98893.84;;;1.78;100.00
52927;BME280;40783;49.710;8.842;2023-03-15T03:21:32;98894.91;;;1.75;100.00
52927;BME280;40783;49.710;8.842;2023-03-15T03:23:57;98887.31;;;1.71;100.00
52927;BME280;40783;49.710;8.842;2023-03-15T03:26:22;98896.19;;;1.70;100.00
52927;BME280;40783;49.710;8.842;2023-03-15T03:28:52;98909.06;;;1.74;100.00
52927;BME280;40783;49.710;8.842;2023-03-15T03:31:18;98906.72;;;1.70;100.00
52927;BME280;40783;49.710;8.842;2023-03-15T03:33:44;98915.78;;;1.66;100.00
52927;BME280;40783;49.710;8.842;2023-03-15T03:36:12;98913.69;;;1.71;100.00
52927;BME280;40783;49.710;8.842;2023-03-15T03:38:43;98917.25;;;1.70;100.00
52927;BME280;40783;49.710;8.842;2023-03-15T03:41:09;98920.78;;;1.57;100.00
52927;BME280;40783;49.710;8.842;2023-03-15T03:43:35;98917.47;;;1.67;100.00
52927;BME280;40783;49.710;8.842;2023-03-15T03:46:00;98934.78;;;1.71;100.00
52927;BME280;40783;49.710;8.842;2023-03-15T03:48:26;98931.84;;;1.75;100.00
52927;BME280;40783;49.710;8.842;2023-03-15T03:50:53;98952.06;;;1.75;100.00
52927;BME280;40783;49.710;8.842;2023-03-15T03:53:18;98959.88;;;1.76;100.00
52927;BME280;40783;49.710;8.842;2023-03-15T03:55:43;98947.31;;;1.80;100.00
52927;BME280;40783;49.710;8.842;2023-03-15T03:58:10;98946.38;;;1.42;100.00
52927;BME280;40783;49.710;8.842;2023-03-15T04:00:35;98954.72;;;1.49;100.00
52927;BME280;40783;49.710;8.842;2023-03-15T04:03:01;98952.81;;;1.51;100.00
52927;BME280;40783;49.710;8.842;2023-03-15T04:05:26;98950.81;;;1.42;100.00
52927;BME280;40783;49.710;8.842;2023-03-15T04:07:51;98949.53;;;1.47;100.00
52927;BME280;40783;49.710;8.842;2023-03-15T04:10:17;98958.06;;;1.38;100.00
52927;BME280;40783;49.710;8.842;2023-03-15T04:12:42;98959.88;;;1.38;100.00
52927;BME280;40783;49.710;8.842;2023-03-15T04:15:12;98970.63;;;1.35;100.00
52927;BME280;40783;49.710;8.842;2023-03-15T04:17:37;98974.31;;;1.45;100.00
52927;BME280;40783;49.710;8.842;2023-03-15T04:20:03;98970.75;;;1.46;100.00
52927;BME280;40783;49.710;8.842;2023-03-15T04:22:34;98970.41;;;1.38;100.00
52927;BME280;40783;49.710;8.842;2023-03-15T04:24:59;98972.09;;;1.39;100.00
52927;BME280;40783;49.710;8.842;2023-03-15T04:27:26;98976.09;;;1.44;100.00
52927;BME280;40783;49.710;8.842;2023-03-15T04:29:51;98972.22;;;1.50;100.00
52927;BME280;40783;49.710;8.842;2023-03-15T04:32:16;98975.06;;;1.47;100.00
52927;BME280;40783;49.710;8.842;2023-03-15T04:34:41;98965.34;;;1.47;100.00
52927;BME280;40783;49.710;8.842;2023-03-15T04:37:09;98971.28;;;1.51;100.00
52927;BME280;40783;49.710;8.842;2023-03-15T04:39:36;98968.31;;;1.56;100.00
52927;BME280;40783;49.710;8.842;2023-03-15T04:42:03;98974.00;;;1.50;100.00
52927;BME280;40783;49.710;8.842;2023-03-15T04:44:28;98967.69;;;1.52;100.00
52927;BME280;40783;49.710;8.842;2023-03-15T04:46:55;98970.84;;;1.57;100.00
52927;BME280;40783;49.710;8.842;2023-03-15T04:49:23;98970.84;;;1.44;100.00
52927;BME280;40783;49.710;8.842;2023-03-15T04:51:48;98971.69;;;1.45;100.00
52927;BME280;40783;49.710;8.842;2023-03-15T04:54:13;98977.38;;;1.39;100.00
52927;BME280;40783;49.710;8.842;2023-03-15T04:56:38;98982.44;;;1.42;100.00
52927;BME280;40783;49.710;8.842;2023-03-15T04:59:06;98985.16;;;1.27;100.00
52927;BME280;40783;49.710;8.842;2023-03-15T05:01:31;98993.38;;;1.36;100.00
52927;BME280;40783;49.710;8.842;2023-03-15T05:03:57;98998.88;;;1.32;100.00
52927;BME280;40783;49.710;8.842;2023-03-15T05:06:22;99000.13;;;1.40;100.00
52927;BME280;40783;49.710;8.842;2023-03-15T05:08:50;98994.13;;;1.38;100.00
52927;BME280;40783;49.710;8.842;2023-03-15T05:11:16;98986.03;;;1.41;100.00
52927;BME280;40783;49.710;8.842;2023-03-15T05:13:41;98994.88;;;1.40;100.00
52927;BME280;40783;49.710;8.842;2023-03-15T05:16:06;98997.78;;;1.22;100.00
52927;BME280;40783;49.710;8.842;2023-03-15T05:18:35;98996.72;;;1.12;100.00
52927;BME280;40783;49.710;8.842;2023-03-15T05:21:02;98991.03;;;1.18;100.00
52927;BME280;40783;49.710;8.842;2023-03-15T05:23:30;98988.41;;;1.18;100.00
52927;BME280;40783;49.710;8.842;2023-03-15T05:25:57;98993.19;;;1.26;100.00
52927;BME280;40783;49.710;8.842;2023-03-15T05:28:25;98990.41;;;1.27;100.00
52927;BME280;40783;49.710;8.842;2023-03-15T05:30:51;98988.94;;;1.23;100.00
52927;BME280;40783;49.710;8.842;2023-03-15T05:33:18;98990.22;;;1.30;100.00
52927;BME280;40783;49.710;8.842;2023-03-15T05:35:44;98998.44;;;1.26;100.00
52927;BME280;40783;49.710;8.842;2023-03-15T05:38:10;99001.84;;;1.41;100.00
52927;BME280;40783;49.710;8.842;2023-03-15T05:40:39;99003.31;;;1.45;100.00
52927;BME280;40783;49.710;8.842;2023-03-15T05:43:07;99009.75;;;1.41;100.00
52927;BME280;40783;49.710;8.842;2023-03-15T05:45:32;99006.03;;;1.43;100.00
52927;BME280;40783;49.710;8.842;2023-03-15T05:47:58;99006.69;;;1.47;100.00
52927;BME280;40783;49.710;8.842;2023-03-15T05:50:23;99015.53;;;1.46;100.00
52927;BME280;40783;49.710;8.842;2023-03-15T05:52:49;99008.59;;;1.45;100.00
52927;BME280;40783;49.710;8.842;2023-03-15T05:55:17;98998.47;;;1.39;100.00
52927;BME280;40783;49.710;8.842;2023-03-15T05:57:42;99005.63;;;1.37;100.00
52927;BME280;40783;49.710;8.842;2023-03-15T06:00:09;99001.22;;;1.50;100.00
52927;BME280;40783;49.710;8.842;2023-03-15T06:02:35;99007.31;;;1.63;100.00
52927;BME280;40783;49.710;8.842;2023-03-15T06:05:00;98998.66;;;1.61;100.00
52927;BME280;40783;49.710;8.842;2023-03-15T06:07:25;99003.31;;;1.45;100.00
52927;BME280;40783;49.710;8.842;2023-03-15T06:09:50;99005.41;;;1.53;100.00
52927;BME280;40783;49.710;8.842;2023-03-15T06:12:18;99015.53;;;1.46;100.00
52927;BME280;40783;49.710;8.842;2023-03-15T06:14:44;99012.16;;;1.44;100.00
52927;BME280;40783;49.710;8.842;2023-03-15T06:17:09;99014.72;;;1.58;100.00
52927;BME280;40783;49.710;8.842;2023-03-15T06:19:34;99024.28;;;1.59;100.00
52927;BME280;40783;49.710;8.842;2023-03-15T06:22:02;99024.28;;;1.59;100.00
52927;BME280;40783;49.710;8.842;2023-03-15T06:24:27;99034.31;;;1.54;100.00
52927;BME280;40783;49.710;8.842;2023-03-15T06:26:53;99034.47;;;1.25;100.00
52927;BME280;40783;49.710;8.842;2023-03-15T06:29:23;99031.56;;;1.43;100.00
52927;BME280;40783;49.710;8.842;2023-03-15T06:31:49;99031.16;;;1.49;100.00
52927;BME280;40783;49.710;8.842;2023-03-15T06:34:19;99025.47;;;1.55;100.00
52927;BME280;40783;49.710;8.842;2023-03-15T06:36:45;99031.97;;;1.62;100.00
52927;BME280;40783;49.710;8.842;2023-03-15T06:39:11;99023.66;;;1.69;100.00
52927;BME280;40783;49.710;8.842;2023-03-15T06:41:42;99031.38;;;1.72;100.00
52927;BME280;40783;49.710;8.842;2023-03-15T06:44:09;99040.22;;;1.71;100.00
52927;BME280;40783;49.710;8.842;2023-03-15T06:46:35;99048.03;;;1.72;100.00
52927;BME280;40783;49.710;8.842;2023-03-15T06:49:00;99040.75;;;1.76;100.00
52927;BME280;40783;49.710;8.842;2023-03-15T06:51:25;99049.53;;;1.76;100.00
52927;BME280;40783;49.710;8.842;2023-03-15T06:53:50;99061.31;;;1.71;100.00
52927;BME280;40783;49.710;8.842;2023-03-15T06:56:15;99070.38;;;1.67;100.00
52927;BME280;40783;49.710;8.842;2023-03-15T06:58:41;99055.63;;;1.64;100.00
52927;BME280;40783;49.710;8.842;2023-03-15T07:01:06;99053.94;;;1.63;100.00
52927;BME280;40783;49.710;8.842;2023-03-15T07:03:34;99056.03;;;1.71;100.00
52927;BME280;40783;49.710;8.842;2023-03-15T07:06:01;99062.38;;;1.81;100.00
52927;BME280;40783;49.710;8.842;2023-03-15T07:08:27;99062.81;;;2.01;100.00
52927;BME280;40783;49.710;8.842;2023-03-15T07:10:52;99061.13;;;2.00;100.00
52927;BME280;40783;49.710;8.842;2023-03-15T07:13:18;99060.91;;;1.90;100.00
52927;BME280;40783;49.710;8.842;2023-03-15T07:15:43;99067.22;;;2.00;100.00
52927;BME280;40783;49.710;8.842;2023-03-15T07:18:10;99068.50;;;1.95;100.00
52927;BME280;40783;49.710;8.842;2023-03-15T07:20:36;99074.69;;;1.68;100.00
52927;BME280;40783;49.710;8.842;2023-03-15T07:23:05;99082.41;;;1.71;100.00
52927;BME280;40783;49.710;8.842;2023-03-15T07:25:31;99098.63;;;1.65;100.00
52927;BME280;40783;49.710;8.842;2023-03-15T07:27:56;99092.78;;;1.46;100.00
52927;BME280;40783;49.710;8.842;2023-03-15T07:30:21;99104.22;;;1.60;100.00
52927;BME280;40783;49.710;8.842;2023-03-15T07:32:46;99103.81;;;1.66;100.00
52927;BME280;40783;49.710;8.842;2023-03-15T07:35:12;99105.91;;;1.61;100.00
52927;BME280;40783;49.710;8.842;2023-03-15T07:37:37;99111.03;;;1.50;100.00
52927;BME280;40783;49.710;8.842;2023-03-15T07:40:05;99117.25;;;1.48;100.00
52927;BME280;40783;49.710;8.842;2023-03-15T07:42:37;99114.41;;;1.39;100.00
52927;BME280;40783;49.710;8.842;2023-03-15T07:45:02;99126.22;;;1.46;100.00
52927;BME280;40783;49.710;8.842;2023-03-15T07:47:28;99126.47;;;1.28;100.00
52927;BME280;40783;49.710;8.842;2023-03-15T07:49:56;99127.03;;;1.33;100.00
52927;BME280;40783;49.710;8.842;2023-03-15T07:52:21;99120.84;;;1.20;100.00
52927;BME280;40783;49.710;8.842;2023-03-15T07:54:47;99120.25;;;1.29;100.00
52927;BME280;40783;49.710;8.842;2023-03-15T07:57:12;99121.75;;;1.33;100.00
52927;BME280;40783;49.710;8.842;2023-03-15T07:59:37;99127.41;;;1.27;100.00
52927;BME280;40783;49.710;8.842;2023-03-15T08:02:05;99130.00;;;1.14;100.00
52927;BME280;40783;49.710;8.842;2023-03-15T08:04:30;99122.88;;;1.02;100.00
52927;BME280;40783;49.710;8.842;2023-03-15T08:06:55;99124.22;;;1.22;100.00
52927;BME280;40783;49.710;8.842;2023-03-15T08:09:23;99132.50;;;1.30;100.00
52927;BME280;40783;49.710;8.842;2023-03-15T08:11:51;99128.50;;;1.38;100.00
52927;BME280;40783;49.710;8.842;2023-03-15T08:14:17;99125.13;;;1.36;100.00
52927;BME280;40783;49.710;8.842;2023-03-15T08:16:42;99131.91;;;1.40;100.00
52927;BME280;40783;49.710;8.842;2023-03-15T08:19:09;99138.38;;;1.34;100.00
52927;BME280;40783;49.710;8.842;2023-03-15T08:21:35;99137.78;;;1.43;100.00
52927;BME280;40783;49.710;8.842;2023-03-15T08:24:02;99148.06;;;1.48;100.00
52927;BME280;40783;49.710;8.842;2023-03-15T08:26:28;99139.94;;;1.51;100.00
52927;BME280;40783;49.710;8.842;2023-03-15T08:28:53;99151.78;;;1.58;100.00
52927;BME280;40783;49.710;8.842;2023-03-15T08:31:20;99152.19;;;1.52;100.00
52927;BME280;40783;49.710;8.842;2023-03-15T08:33:46;99147.91;;;1.37;100.00
52927;BME280;40783;49.710;8.842;2023-03-15T08:36:11;99149.03;;;1.60;100.00
52927;BME280;40783;49.710;8.842;2023-03-15T08:38:39;99148.63;;;1.66;100.00
52927;BME280;40783;49.710;8.842;2023-03-15T08:41:05;99155.56;;;1.54;100.00
52927;BME280;40783;49.710;8.842;2023-03-15T08:43:30;99153.25;;;1.62;100.00
52927;BME280;40783;49.710;8.842;2023-03-15T08:45:56;99154.25;;;1.87;100.00
52927;BME280;40783;49.710;8.842;2023-03-15T08:48:22;99151.16;;;1.68;100.00
52927;BME280;40783;49.710;8.842;2023-03-15T08:50:47;99158.50;;;1.62;100.00
52927;BME280;40783;49.710;8.842;2023-03-15T08:53:15;99172.63;;;1.61;100.00
52927;BME280;40783;49.710;8.842;2023-03-15T08:55:40;99171.63;;;1.77;100.00
52927;BME280;40783;49.710;8.842;2023-03-15T08:58:06;99167.66;;;1.97;100.00
52927;BME280;40783;49.710;8.842;2023-03-15T09:00:31;99169.13;;;1.88;100.00
52927;BME280;40783;49.710;8.842;2023-03-15T09:02:56;99168.72;;;1.95;100.00
52927;BME280;40783;49.710;8.842;2023-03-15T09:05:23;99172.41;;;1.92;100.00
52927;BME280;40783;49.710;8.842;2023-03-15T09:07:50;99179.94;;;2.11;100.00
52927;BME280;40783;49.710;8.842;2023-03-15T09:10:17;99176.53;;;1.96;100.00
52927;BME280;40783;49.710;8.842;2023-03-15T09:12:47;99177.19;;;2.00;100.00
52927;BME280;40783;49.710;8.842;2023-03-15T09:15:12;99177.31;;;2.11;100.00
52927;BME280;40783;49.710;8.842;2023-03-15T09:17:39;99177.94;;;2.02;100.00
52927;BME280;40783;49.710;8.842;2023-03-15T09:20:05;99189.53;;;2.12;100.00
52927;BME280;40783;49.710;8.842;2023-03-15T09:22:41;99189.44;;;2.40;100.00
52927;BME280;40783;49.710;8.842;2023-03-15T09:25:06;99187.16;;;2.61;100.00
52927;BME280;40783;49.710;8.842;2023-03-15T09:27:32;99188.16;;;2.71;100.00
52927;BME280;40783;49.710;8.842;2023-03-15T09:29:57;99191.69;;;2.59;100.00
52927;BME280;40783;49.710;8.842;2023-03-15T09:32:23;99194.31;;;2.46;100.00
52927;BME280;40783;49.710;8.842;2023-03-15T09:34:48;99192.41;;;2.09;100.00
52927;BME280;40783;49.710;8.842;2023-03-15T09:37:13;99203.16;;;2.06;100.00
52927;BME280;40783;49.710;8.842;2023-03-15T09:39:39;99214.31;;;1.97;100.00
52927;BME280;40783;49.710;8.842;2023-03-15T09:42:05;99216.00;;;1.98;100.00
52927;BME280;40783;49.710;8.842;2023-03-15T09:44:44;99209.03;;;1.97;100.00
52927;BME280;40783;49.710;8.842;2023-03-15T09:47:20;99212.81;;;1.92;100.00
52927;BME280;40783;49.710;8.842;2023-03-15T09:50:03;99214.72;;;1.90;100.00
52927;BME280;40783;49.710;8.842;2023-03-15T09:52:43;99217.09;;;2.08;100.00
52927;BME280;40783;49.710;8.842;2023-03-15T09:57:45;99217.97;;;2.47;100.00
52927;BME280;40783;49.710;8.842;2023-03-15T10:00:13;99224.72;;;2.77;100.00
52927;BME280;40783;49.710;8.842;2023-03-15T10:02:41;99230.53;;;2.82;100.00
52927;BME280;40783;49.710;8.842;2023-03-15T10:05:18;99225.97;;;2.85;100.00
52927;BME280;40783;49.710;8.842;2023-03-15T10:07:44;99230.22;;;2.48;100.00
52927;BME280;40783;49.710;8.842;2023-03-15T10:10:24;99227.66;;;2.47;100.00
52927;BME280;40783;49.710;8.842;2023-03-15T10:12:55;99231.06;;;2.36;100.00
52927;BME280;40783;49.710;8.842;2023-03-15T10:20:24;99230.63;;;2.68;100.00
52927;BME280;40783;49.710;8.842;2023-03-15T10:25:25;99230.44;;;2.45;100.00
52927;BME280;40783;49.710;8.842;2023-03-15T10:30:23;99244.78;;;2.54;100.00
52927;BME280;40783;49.710;8.842;2023-03-15T10:32:56;99239.03;;;2.21;100.00
52927;BME280;40783;49.710;8.842;2023-03-15T10:35:25;99238.19;;;2.08;100.00
52927;BME280;40783;49.710;8.842;2023-03-15T10:37:50;99243.81;;;2.29;100.00
52927;BME280;40783;49.710;8.842;2023-03-15T10:40:16;99246.81;;;2.50;100.00
52927;BME280;40783;49.710;8.842;2023-03-15T10:43:01;99249.84;;;2.44;100.00
52927;BME280;40783;49.710;8.842;2023-03-15T10:45:26;99245.81;;;2.38;100.00
52927;BME280;40783;49.710;8.842;2023-03-15T10:47:52;99249.94;;;2.30;100.00
52927;BME280;40783;49.710;8.842;2023-03-15T10:50:29;99247.50;;;2.27;100.00
52927;BME280;40783;49.710;8.842;2023-03-15T10:52:58;99256.97;;;2.16;100.00
52927;BME280;40783;49.710;8.842;2023-03-15T10:55:29;99254.66;;;2.25;100.00
52927;BME280;40783;49.710;8.842;2023-03-15T10:57:57;99253.38;;;2.17;100.00
52927;BME280;40783;49.710;8.842;2023-03-15T11:00:26;99253.19;;;2.20;100.00
52927;BME280;40783;49.710;8.842;2023-03-15T11:03:02;99251.59;;;2.05;100.00
52927;BME280;40783;49.710;8.842;2023-03-15T11:05:31;99253.84;;;2.24;100.00
52927;BME280;40783;49.710;8.842;2023-03-15T11:07:59;99255.47;;;2.12;100.00
52927;BME280;40783;49.710;8.842;2023-03-15T11:10:28;99265.22;;;2.25;100.00
52927;BME280;40783;49.710;8.842;2023-03-15T11:13:16;99266.19;;;1.96;100.00
52927;BME280;40783;49.710;8.842;2023-03-15T11:15:46;99268.25;;;2.18;100.00
52927;BME280;40783;49.710;8.842;2023-03-15T11:18:26;99265.75;;;2.30;100.00
52927;BME280;40783;49.710;8.842;2023-03-15T11:20:52;99263.78;;;2.46;100.00
52927;BME280;40783;49.710;8.842;2023-03-15T11:23:19;99259.25;;;2.61;100.00
52927;BME280;40783;49.710;8.842;2023-03-15T11:25:46;99262.63;;;2.50;100.00
52927;BME280;40783;49.710;8.842;2023-03-15T11:28:15;99263.19;;;2.69;100.00
52927;BME280;40783;49.710;8.842;2023-03-15T11:30:41;99264.22;;;2.92;100.00
52927;BME280;40783;49.710;8.842;2023-03-15T11:33:10;99266.34;;;3.13;100.00
52927;BME280;40783;49.710;8.842;2023-03-15T11:35:44;99259.13;;;3.28;100.00
52927;BME280;40783;49.710;8.842;2023-03-15T11:38:15;99268.25;;;3.10;100.00
52927;BME280;40783;49.710;8.842;2023-03-15T11:40:43;99274.56;;;2.69;100.00
52927;BME280;40783;49.710;8.842;2023-03-15T11:43:36;99270.88;;;2.85;100.00
52927;BME280;40783;49.710;8.842;2023-03-15T11:46:03;99275.63;;;3.05;100.00
52927;BME280;40783;49.710;8.842;2023-03-15T11:51:00;99270.53;;;3.15;100.00
52927;BME280;40783;49.710;8.842;2023-03-15T11:56:43;99268.91;;;3.38;100.00
52927;BME280;40783;49.710;8.842;2023-03-15T12:01:47;99271.81;;;3.60;100.00
52927;BME280;40783;49.710;8.842;2023-03-15T12:06:49;99262.09;;;3.60;100.00
52927;BME280;40783;49.710;8.842;2023-03-15T12:12:03;99266.47;;;3.72;100.00
52927;BME280;40783;49.710;8.842;2023-03-15T12:14:33;99262.03;;;3.73;100.00
52927;BME280;40783;49.710;8.842;2023-03-15T12:19:43;99281.16;;;3.77;100.00
52927;BME280;40783;49.710;8.842;2023-03-15T12:22:22;99278.00;;;3.84;100.00
52927;BME280;40783;49.710;8.842;2023-03-15T12:24:48;99271.84;;;3.84;100.00
52927;BME280;40783;49.710;8.842;2023-03-15T12:27:22;99272.19;;;4.04;100.00
52927;BME280;40783;49.710;8.842;2023-03-15T12:29:47;99267.28;;;3.86;100.00
52927;BME280;40783;49.710;8.842;2023-03-15T12:32:21;99269.47;;;3.92;100.00
52927;BME280;40783;49.710;8.842;2023-03-15T12:34:53;99280.56;;;3.97;100.00
52927;BME280;40783;49.710;8.842;2023-03-15T12:39:58;99278.72;;;4.11;100.00
52927;BME280;40783;49.710;8.842;2023-03-15T12:53:21;99284.84;;;4.47;100.00
52927;BME280;40783;49.710;8.842;2023-03-15T12:55:47;99284.53;;;4.27;100.00
52927;BME280;40783;49.710;8.842;2023-03-15T12:58:16;99287.03;;;4.53;100.00
52927;BME280;40783;49.710;8.842;2023-03-15T13:00:53;99279.84;;;4.67;100.00
52927;BME280;40783;49.710;8.842;2023-03-15T13:03:20;99277.59;;;4.85;100.00
52927;BME280;40783;49.710;8.842;2023-03-15T13:11:32;99281.31;;;4.71;100.00
52927;BME280;40783;49.710;8.842;2023-03-15T13:14:10;99272.84;;;4.54;100.00
52927;BME280;40783;49.710;8.842;2023-03-15T13:16:47;99280.25;;;4.38;100.00
52927;BME280;40783;49.710;8.842;2023-03-15T13:19:21;99279.78;;;4.44;100.00
52927;BME280;40783;49.710;8.842;2023-03-15T13:22:00;99277.03;;;4.45;100.00
52927;BME280;40783;49.710;8.842;2023-03-15T13:27:05;99270.59;;;4.84;100.00
52927;BME280;40783;49.710;8.842;2023-03-15T13:29:33;99276.41;;;4.89;100.00
52927;BME280;40783;49.710;8.842;2023-03-15T13:34:32;99263.19;;;4.53;100.00
52927;BME280;40783;49.710;8.842;2023-03-15T13:36:58;99261.28;;;4.55;100.00
52927;BME280;40783;49.710;8.842;2023-03-15T13:39:35;99263.66;;;4.47;100.00
52927;BME280;40783;49.710;8.842;2023-03-15T13:44:26;99265.97;;;4.63;100.00
52927;BME280;40783;49.710;8.842;2023-03-15T13:46:55;99259.88;;;4.85;100.00
52927;BME280;40783;49.710;8.842;2023-03-15T13:49:20;99263.25;;;4.99;100.00
52927;BME280;40783;49.710;8.842;2023-03-15T13:51:46;99263.13;;;5.12;100.00
52927;BME280;40783;49.710;8.842;2023-03-15T13:59:22;99266.84;;;5.43;100.00
52927;BME280;40783;49.710;8.842;2023-03-15T14:01:49;99258.22;;;5.18;100.00
52927;BME280;40783;49.710;8.842;2023-03-15T14:22:49;99266.84;;;5.43;100.00
52927;BME280;40783;49.710;8.842;2023-03-15T14:31:05;99262.53;;;5.08;100.00
52927;BME280;40783;49.710;8.842;2023-03-15T14:51:28;99267.09;;;5.40;98.88
52927;BME280;40783;49.710;8.842;2023-03-15T14:53:56;99267.25;;;5.27;100.00
52927;BME280;40783;49.710;8.842;2023-03-15T14:56:25;99264.09;;;5.45;100.00